sensor_id;sensor_type;location;lat;lon;timestamp;temperature;humidity
43346;DHT22;28937;51.160;4.146;2022-12-11T00:02:01;8.90;90.30
43346;DHT22;28937;51.160;4.146;2022-12-11T00:04:27;9.00;90.20
43346;DHT22;28937;51.160;4.146;2022-12-11T00:06:52;8.90;90.20
43346;DHT22;28937;51.160;4.146;2022-12-11T00:09:19;8.90;90.20
43346;DHT22;28937;51.160;4.146;2022-12-11T00:11:45;8.70;90.30
43346;DHT22;28937;51.160;4.146;2022-12-11T00:14:12;8.90;90.20
43346;DHT22;28937;51.160;4.146;2022-12-11T00:16:37;8.90;90.30
43346;DHT22;28937;51.160;4.146;2022-12-11T00:19:03;8.90;90.30
43346;DHT22;28937;51.160;4.146;2022-12-11T00:21:29;8.80;90.30
43346;DHT22;28937;51.160;4.146;2022-12-11T00:23:55;8.80;90.20
43346;DHT22;28937;51.160;4.146;2022-12-11T00:26:21;8.90;90.20
43346;DHT22;28937;51.160;4.146;2022-12-11T00:28:47;9.00;90.00
43346;DHT22;28937;51.160;4.146;2022-12-11T00:31:17;8.90;90.10
43346;DHT22;28937;51.160;4.146;2022-12-11T00:33:44;8.90;90.10
43346;DHT22;28937;51.160;4.146;2022-12-11T00:36:22;8.90;90.20
43346;DHT22;28937;51.160;4.146;2022-12-11T00:38:48;8.80;90.20
43346;DHT22;28937;51.160;4.146;2022-12-11T00:41:15;8.90;90.30
43346;DHT22;28937;51.160;4.146;2022-12-11T00:43:40;8.80;90.20
43346;DHT22;28937;51.160;4.146;2022-12-11T00:46:06;8.90;90.20
43346;DHT22;28937;51.160;4.146;2022-12-11T00:48:32;8.90;90.10
43346;DHT22;28937;51.160;4.146;2022-12-11T00:50:58;8.80;90.20
43346;DHT22;28937;51.160;4.146;2022-12-11T00:53:24;8.80;90.20
43346;DHT22;28937;51.160;4.146;2022-12-11T00:55:50;8.80;90.30
43346;DHT22;28937;51.160;4.146;2022-12-11T00:58:15;8.80;90.20
43346;DHT22;28937;51.160;4.146;2022-12-11T01:00:42;8.90;90.10
43346;DHT22;28937;51.160;4.146;2022-12-11T01:03:09;8.80;90.20
43346;DHT22;28937;51.160;4.146;2022-12-11T01:05:35;8.90;90.20
43346;DHT22;28937;51.160;4.146;2022-12-11T01:08:01;8.80;90.20
43346;DHT22;28937;51.160;4.146;2022-12-11T01:10:27;8.90;90.20
43346;DHT22;28937;51.160;4.146;2022-12-11T01:15:21;8.80;90.20
43346;DHT22;28937;51.160;4.146;2022-12-11T01:17:48;8.80;90.20
43346;DHT22;28937;51.160;4.146;2022-12-11T01:20:14;8.80;90.30
43346;DHT22;28937;51.160;4.146;2022-12-11T01:22:40;8.80;90.30
43346;DHT22;28937;51.160;4.146;2022-12-11T01:25:06;8.80;90.40
43346;DHT22;28937;51.160;4.146;2022-12-11T01:27:32;8.80;90.40
43346;DHT22;28937;51.160;4.146;2022-12-11T01:29:57;8.70;90.40
43346;DHT22;28937;51.160;4.146;2022-12-11T01:32:23;8.70;90.60
43346;DHT22;28937;51.160;4.146;2022-12-11T01:34:48;8.70;90.60
43346;DHT22;28937;51.160;4.146;2022-12-11T01:37:14;8.70;90.60
43346;DHT22;28937;51.160;4.146;2022-12-11T01:39:40;8.70;90.50
43346;DHT22;28937;51.160;4.146;2022-12-11T01:42:05;8.70;90.60
43346;DHT22;28937;51.160;4.146;2022-12-11T01:47:00;8.60;90.50
43346;DHT22;28937;51.160;4.146;2022-12-11T01:49:26;8.70;90.50
43346;DHT22;28937;51.160;4.146;2022-12-11T01:52:00;8.70;90.40
43346;DHT22;28937;51.160;4.146;2022-12-11T01:54:28;8.70;90.50
43346;DHT22;28937;51.160;4.146;2022-12-11T01:56:58;8.60;90.50
43346;DHT22;28937;51.160;4.146;2022-12-11T01:59:27;8.70;90.50
43346;DHT22;28937;51.160;4.146;2022-12-11T02:01:57;8.70;90.50
43346;DHT22;28937;51.160;4.146;2022-12-11T02:04:23;8.70;90.50
43346;DHT22;28937;51.160;4.146;2022-12-11T02:06:51;8.70;90.50
43346;DHT22;28937;51.160;4.146;2022-12-11T02:09:23;8.70;90.60
43346;DHT22;28937;51.160;4.146;2022-12-11T02:12:00;8.70;90.70
43346;DHT22;28937;51.160;4.146;2022-12-11T02:23:43;8.60;90.80
43346;DHT22;28937;51.160;4.146;2022-12-11T02:26:16;8.50;90.90
43346;DHT22;28937;51.160;4.146;2022-12-11T02:28:52;8.50;90.90
43346;DHT22;28937;51.160;4.146;2022-12-11T02:31:37;8.50;91.00
43346;DHT22;28937;51.160;4.146;2022-12-11T02:36:50;8.50;91.00
43346;DHT22;28937;51.160;4.146;2022-12-11T02:39:17;8.50;90.90
43346;DHT22;28937;51.160;4.146;2022-12-11T02:41:49;8.60;90.80
43346;DHT22;28937;51.160;4.146;2022-12-11T02:44:20;8.50;91.00
43346;DHT22;28937;51.160;4.146;2022-12-11T02:46:46;8.50;90.90
43346;DHT22;28937;51.160;4.146;2022-12-11T02:49:13;8.60;90.90
43346;DHT22;28937;51.160;4.146;2022-12-11T02:51:41;8.50;90.90
43346;DHT22;28937;51.160;4.146;2022-12-11T02:54:13;8.40;91.10
43346;DHT22;28937;51.160;4.146;2022-12-11T02:56:47;8.50;91.10
43346;DHT22;28937;51.160;4.146;2022-12-11T02:59:19;8.50;91.10
43346;DHT22;28937;51.160;4.146;2022-12-11T03:01:46;8.50;90.90
43346;DHT22;28937;51.160;4.146;2022-12-11T03:04:12;8.60;90.90
43346;DHT22;28937;51.160;4.146;2022-12-11T03:06:43;8.50;90.90
43346;DHT22;28937;51.160;4.146;2022-12-11T03:09:11;8.50;90.90
43346;DHT22;28937;51.160;4.146;2022-12-11T03:11:37;8.50;90.90
43346;DHT22;28937;51.160;4.146;2022-12-11T03:14:03;8.50;90.90
43346;DHT22;28937;51.160;4.146;2022-12-11T03:16:36;8.60;91.00
43346;DHT22;28937;51.160;4.146;2022-12-11T03:19:29;8.60;91.00
43346;DHT22;28937;51.160;4.146;2022-12-11T03:27:05;8.50;91.10
43346;DHT22;28937;51.160;4.146;2022-12-11T03:29:36;8.50;91.00
43346;DHT22;28937;51.160;4.146;2022-12-11T03:32:05;8.50;91.00
43346;DHT22;28937;51.160;4.146;2022-12-11T03:34:42;8.50;90.90
43346;DHT22;28937;51.160;4.146;2022-12-11T03:37:10;8.40;91.00
43346;DHT22;28937;51.160;4.146;2022-12-11T03:39:40;8.50;90.90
43346;DHT22;28937;51.160;4.146;2022-12-11T03:42:10;8.50;91.00
43346;DHT22;28937;51.160;4.146;2022-12-11T03:44:36;8.40;91.00
43346;DHT22;28937;51.160;4.146;2022-12-11T03:47:05;8.50;90.90
43346;DHT22;28937;51.160;4.146;2022-12-11T03:49:35;8.50;91.00
43346;DHT22;28937;51.160;4.146;2022-12-11T03:52:04;8.50;90.90
43346;DHT22;28937;51.160;4.146;2022-12-11T03:54:30;8.50;90.90
43346;DHT22;28937;51.160;4.146;2022-12-11T03:56:58;8.50;91.00
43346;DHT22;28937;51.160;4.146;2022-12-11T03:59:24;8.50;91.10
43346;DHT22;28937;51.160;4.146;2022-12-11T04:01:50;8.40;91.20
43346;DHT22;28937;51.160;4.146;2022-12-11T04:04:16;8.40;91.10
43346;DHT22;28937;51.160;4.146;2022-12-11T04:06:42;8.40;91.00
43346;DHT22;28937;51.160;4.146;2022-12-11T04:09:08;8.40;91.20
43346;DHT22;28937;51.160;4.146;2022-12-11T04:11:33;8.50;91.10
43346;DHT22;28937;51.160;4.146;2022-12-11T04:14:04;8.40;91.20
43346;DHT22;28937;51.160;4.146;2022-12-11T04:16:48;8.50;91.10
43346;DHT22;28937;51.160;4.146;2022-12-11T04:19:13;8.40;91.00
43346;DHT22;28937;51.160;4.146;2022-12-11T04:21:58;8.40;90.90
43346;DHT22;28937;51.160;4.146;2022-12-11T04:24:42;8.50;90.90
43346;DHT22;28937;51.160;4.146;2022-12-11T04:27:08;8.60;90.90
43346;DHT22;28937;51.160;4.146;2022-12-11T04:29:33;8.50;90.90
43346;DHT22;28937;51.160;4.146;2022-12-11T04:31:59;8.50;90.90
43346;DHT22;28937;51.160;4.146;2022-12-11T04:34:25;8.50;91.10
43346;DHT22;28937;51.160;4.146;2022-12-11T04:36:50;8.40;91.10
43346;DHT22;28937;51.160;4.146;2022-12-11T04:39:16;8.40;91.30
43346;DHT22;28937;51.160;4.146;2022-12-11T04:41:41;8.40;91.20
43346;DHT22;28937;51.160;4.146;2022-12-11T04:44:08;8.50;91.20
43346;DHT22;28937;51.160;4.146;2022-12-11T04:46:34;8.40;91.30
43346;DHT22;28937;51.160;4.146;2022-12-11T04:48:59;8.40;91.20
43346;DHT22;28937;51.160;4.146;2022-12-11T04:51:26;8.40;91.20
43346;DHT22;28937;51.160;4.146;2022-12-11T04:53:52;8.40;91.20
43346;DHT22;28937;51.160;4.146;2022-12-11T04:56:18;8.40;91.20
43346;DHT22;28937;51.160;4.146;2022-12-11T04:58:45;8.40;91.20
43346;DHT22;28937;51.160;4.146;2022-12-11T05:01:19;8.40;91.20
43346;DHT22;28937;51.160;4.146;2022-12-11T05:03:45;8.40;91.30
43346;DHT22;28937;51.160;4.146;2022-12-11T05:06:12;8.40;91.30
43346;DHT22;28937;51.160;4.146;2022-12-11T05:08:39;8.40;91.30
43346;DHT22;28937;51.160;4.146;2022-12-11T05:11:08;8.40;91.30
43346;DHT22;28937;51.160;4.146;2022-12-11T05:13:34;8.40;91.40
43346;DHT22;28937;51.160;4.146;2022-12-11T05:16:03;8.40;91.30
43346;DHT22;28937;51.160;4.146;2022-12-11T05:18:29;8.40;91.30
43346;DHT22;28937;51.160;4.146;2022-12-11T05:20:59;8.40;91.30
43346;DHT22;28937;51.160;4.146;2022-12-11T05:23:26;8.50;91.30
43346;DHT22;28937;51.160;4.146;2022-12-11T05:25:56;8.50;91.20
43346;DHT22;28937;51.160;4.146;2022-12-11T05:28:23;8.40;91.20
43346;DHT22;28937;51.160;4.146;2022-12-11T05:30:57;8.40;91.10
43346;DHT22;28937;51.160;4.146;2022-12-11T05:33:24;8.40;91.10
43346;DHT22;28937;51.160;4.146;2022-12-11T05:35:51;8.40;91.10
43346;DHT22;28937;51.160;4.146;2022-12-11T05:38:16;8.40;91.20
43346;DHT22;28937;51.160;4.146;2022-12-11T05:40:42;8.40;91.10
43346;DHT22;28937;51.160;4.146;2022-12-11T05:43:08;8.40;91.10
43346;DHT22;28937;51.160;4.146;2022-12-11T05:45:34;8.40;91.10
43346;DHT22;28937;51.160;4.146;2022-12-11T05:47:59;8.40;91.10
43346;DHT22;28937;51.160;4.146;2022-12-11T05:50:25;8.30;91.10
43346;DHT22;28937;51.160;4.146;2022-12-11T05:52:51;8.30;91.10
43346;DHT22;28937;51.160;4.146;2022-12-11T05:55:16;8.30;91.00
43346;DHT22;28937;51.160;4.146;2022-12-11T05:57:42;8.40;91.00
43346;DHT22;28937;51.160;4.146;2022-12-11T06:00:09;8.50;90.90
43346;DHT22;28937;51.160;4.146;2022-12-11T06:02:35;8.40;90.90
43346;DHT22;28937;51.160;4.146;2022-12-11T06:05:01;8.40;91.00
43346;DHT22;28937;51.160;4.146;2022-12-11T06:07:27;8.40;90.90
43346;DHT22;28937;51.160;4.146;2022-12-11T06:09:52;8.40;91.10
43346;DHT22;28937;51.160;4.146;2022-12-11T06:12:18;8.40;91.20
43346;DHT22;28937;51.160;4.146;2022-12-11T06:14:43;8.30;91.20
43346;DHT22;28937;51.160;4.146;2022-12-11T06:17:09;8.30;91.20
43346;DHT22;28937;51.160;4.146;2022-12-11T06:19:35;8.40;91.10
43346;DHT22;28937;51.160;4.146;2022-12-11T06:22:00;8.30;91.20
43346;DHT22;28937;51.160;4.146;2022-12-11T06:24:26;8.40;91.10
43346;DHT22;28937;51.160;4.146;2022-12-11T06:26:51;8.40;91.20
43346;DHT22;28937;51.160;4.146;2022-12-11T06:29:17;8.30;91.10
43346;DHT22;28937;51.160;4.146;2022-12-11T06:31:43;8.30;91.10
43346;DHT22;28937;51.160;4.146;2022-12-11T06:34:11;8.40;91.10
43346;DHT22;28937;51.160;4.146;2022-12-11T06:36:37;8.40;91.00
43346;DHT22;28937;51.160;4.146;2022-12-11T06:39:03;8.40;91.10
43346;DHT22;28937;51.160;4.146;2022-12-11T06:41:28;8.40;91.10
43346;DHT22;28937;51.160;4.146;2022-12-11T06:43:54;8.40;91.20
43346;DHT22;28937;51.160;4.146;2022-12-11T06:46:20;8.40;91.10
43346;DHT22;28937;51.160;4.146;2022-12-11T06:48:47;8.30;91.10
43346;DHT22;28937;51.160;4.146;2022-12-11T06:51:14;8.30;91.20
43346;DHT22;28937;51.160;4.146;2022-12-11T06:53:41;8.30;91.20
43346;DHT22;28937;51.160;4.146;2022-12-11T06:56:14;8.40;91.20
43346;DHT22;28937;51.160;4.146;2022-12-11T06:58:40;8.30;91.20
43346;DHT22;28937;51.160;4.146;2022-12-11T07:01:18;8.30;91.10
43346;DHT22;28937;51.160;4.146;2022-12-11T07:03:44;8.30;91.00
43346;DHT22;28937;51.160;4.146;2022-12-11T07:06:10;8.40;91.00
43346;DHT22;28937;51.160;4.146;2022-12-11T07:08:35;8.40;90.80
43346;DHT22;28937;51.160;4.146;2022-12-11T07:11:03;8.30;90.70
43346;DHT22;28937;51.160;4.146;2022-12-11T07:13:29;8.30;90.70
43346;DHT22;28937;51.160;4.146;2022-12-11T07:15:57;8.40;90.60
43346;DHT22;28937;51.160;4.146;2022-12-11T07:18:23;8.40;90.60
43346;DHT22;28937;51.160;4.146;2022-12-11T07:20:49;8.30;90.60
43346;DHT22;28937;51.160;4.146;2022-12-11T07:23:14;8.30;90.60
43346;DHT22;28937;51.160;4.146;2022-12-11T07:25:40;8.20;90.70
43346;DHT22;28937;51.160;4.146;2022-12-11T07:28:06;8.30;90.60
43346;DHT22;28937;51.160;4.146;2022-12-11T07:30:31;8.30;90.40
43346;DHT22;28937;51.160;4.146;2022-12-11T07:32:57;8.00;90.60
43346;DHT22;28937;51.160;4.146;2022-12-11T07:35:23;8.00;91.00
43346;DHT22;28937;51.160;4.146;2022-12-11T07:37:48;8.20;90.60
43346;DHT22;28937;51.160;4.146;2022-12-11T07:40:15;8.30;90.70
43346;DHT22;28937;51.160;4.146;2022-12-11T07:42:41;8.30;90.50
43346;DHT22;28937;51.160;4.146;2022-12-11T07:45:07;8.10;90.70
43346;DHT22;28937;51.160;4.146;2022-12-11T07:47:32;8.30;90.50
43346;DHT22;28937;51.160;4.146;2022-12-11T07:49:58;8.20;90.50
43346;DHT22;28937;51.160;4.146;2022-12-11T07:52:23;8.20;90.60
43346;DHT22;28937;51.160;4.146;2022-12-11T07:54:49;8.30;90.40
43346;DHT22;28937;51.160;4.146;2022-12-11T07:57:15;8.20;90.60
43346;DHT22;28937;51.160;4.146;2022-12-11T07:59:40;8.30;90.50
43346;DHT22;28937;51.160;4.146;2022-12-11T08:02:08;8.30;90.60
43346;DHT22;28937;51.160;4.146;2022-12-11T08:04:33;8.20;90.60
43346;DHT22;28937;51.160;4.146;2022-12-11T08:06:59;8.30;90.70
43346;DHT22;28937;51.160;4.146;2022-12-11T08:09:24;8.20;90.60
43346;DHT22;28937;51.160;4.146;2022-12-11T08:11:50;8.60;90.20
43346;DHT22;28937;51.160;4.146;2022-12-11T08:14:16;8.40;90.40
43346;DHT22;28937;51.160;4.146;2022-12-11T08:16:42;8.30;90.50
43346;DHT22;28937;51.160;4.146;2022-12-11T08:19:10;8.40;90.60
43346;DHT22;28937;51.160;4.146;2022-12-11T08:21:35;8.50;90.50
43346;DHT22;28937;51.160;4.146;2022-12-11T08:24:01;8.50;90.30
43346;DHT22;28937;51.160;4.146;2022-12-11T08:26:29;8.50;90.00
43346;DHT22;28937;51.160;4.146;2022-12-11T08:28:56;8.40;90.30
43346;DHT22;28937;51.160;4.146;2022-12-11T08:31:22;8.50;90.00
43346;DHT22;28937;51.160;4.146;2022-12-11T08:33:49;8.50;90.00
43346;DHT22;28937;51.160;4.146;2022-12-11T08:36:17;8.90;88.80
43346;DHT22;28937;51.160;4.146;2022-12-11T08:38:43;8.80;88.60
43346;DHT22;28937;51.160;4.146;2022-12-11T08:41:13;8.90;88.40
43346;DHT22;28937;51.160;4.146;2022-12-11T08:43:39;8.80;88.40
43346;DHT22;28937;51.160;4.146;2022-12-11T08:46:05;8.70;88.60
43346;DHT22;28937;51.160;4.146;2022-12-11T08:48:32;8.60;89.60
43346;DHT22;28937;51.160;4.146;2022-12-11T08:50:59;8.40;89.80
43346;DHT22;28937;51.160;4.146;2022-12-11T08:53:29;8.50;90.10
43346;DHT22;28937;51.160;4.146;2022-12-11T08:56:02;8.60;90.00
43346;DHT22;28937;51.160;4.146;2022-12-11T08:58:28;8.70;89.60
43346;DHT22;28937;51.160;4.146;2022-12-11T09:00:54;8.70;90.00
43346;DHT22;28937;51.160;4.146;2022-12-11T09:03:20;8.90;88.90
43346;DHT22;28937;51.160;4.146;2022-12-11T09:05:46;8.80;89.00
43346;DHT22;28937;51.160;4.146;2022-12-11T09:08:11;8.90;88.80
43346;DHT22;28937;51.160;4.146;2022-12-11T09:10:37;8.80;88.80
43346;DHT22;28937;51.160;4.146;2022-12-11T09:13:02;8.90;88.90
43346;DHT22;28937;51.160;4.146;2022-12-11T09:15:28;8.90;88.70
43346;DHT22;28937;51.160;4.146;2022-12-11T09:17:54;9.00;90.10
43346;DHT22;28937;51.160;4.146;2022-12-11T09:20:19;9.10;88.30
43346;DHT22;28937;51.160;4.146;2022-12-11T09:22:45;9.10;87.50
43346;DHT22;28937;51.160;4.146;2022-12-11T09:25:10;9.00;87.90
43346;DHT22;28937;51.160;4.146;2022-12-11T09:27:36;9.10;87.30
43346;DHT22;28937;51.160;4.146;2022-12-11T09:30:02;9.00;87.60
43346;DHT22;28937;51.160;4.146;2022-12-11T09:32:28;9.00;87.60
43346;DHT22;28937;51.160;4.146;2022-12-11T09:34:54;9.00;88.80
43346;DHT22;28937;51.160;4.146;2022-12-11T09:37:20;9.00;88.30
43346;DHT22;28937;51.160;4.146;2022-12-11T09:39:46;9.10;88.20
43346;DHT22;28937;51.160;4.146;2022-12-11T09:42:29;8.90;87.80
43346;DHT22;28937;51.160;4.146;2022-12-11T09:45:00;8.80;88.00
43346;DHT22;28937;51.160;4.146;2022-12-11T09:47:35;9.00;87.30
43346;DHT22;28937;51.160;4.146;2022-12-11T09:50:21;8.90;87.00
43346;DHT22;28937;51.160;4.146;2022-12-11T09:58:54;8.90;88.90
43346;DHT22;28937;51.160;4.146;2022-12-11T10:17:41;9.10;87.60
43346;DHT22;28937;51.160;4.146;2022-12-11T10:22:42;9.40;90.20
43346;DHT22;28937;51.160;4.146;2022-12-11T10:27:46;9.60;89.50
43346;DHT22;28937;51.160;4.146;2022-12-11T10:32:56;9.50;87.50
43346;DHT22;28937;51.160;4.146;2022-12-11T10:35:50;9.40;86.20
43346;DHT22;28937;51.160;4.146;2022-12-11T10:40:50;9.70;85.80
43346;DHT22;28937;51.160;4.146;2022-12-11T10:43:16;9.40;85.40
43346;DHT22;28937;51.160;4.146;2022-12-11T10:45:52;9.70;85.90
43346;DHT22;28937;51.160;4.146;2022-12-11T10:48:18;9.30;85.60
43346;DHT22;28937;51.160;4.146;2022-12-11T10:50:55;9.90;87.70
43346;DHT22;28937;51.160;4.146;2022-12-11T10:53:21;9.40;86.80
43346;DHT22;28937;51.160;4.146;2022-12-11T10:55:48;9.00;87.40
43346;DHT22;28937;51.160;4.146;2022-12-11T10:58:21;9.20;88.50
43346;DHT22;28937;51.160;4.146;2022-12-11T11:03:29;9.60;88.60
43346;DHT22;28937;51.160;4.146;2022-12-11T11:08:43;10.30;91.70
43346;DHT22;28937;51.160;4.146;2022-12-11T11:11:35;10.30;92.40
43346;DHT22;28937;51.160;4.146;2022-12-11T11:14:15;10.50;92.30
43346;DHT22;28937;51.160;4.146;2022-12-11T11:16:43;10.40;91.30
43346;DHT22;28937;51.160;4.146;2022-12-11T11:21:49;10.70;91.40
43346;DHT22;28937;51.160;4.146;2022-12-11T11:24:43;10.70;92.20
43346;DHT22;28937;51.160;4.146;2022-12-11T11:27:33;10.70;92.40
43346;DHT22;28937;51.160;4.146;2022-12-11T11:30:12;10.30;90.00
43346;DHT22;28937;51.160;4.146;2022-12-11T11:32:42;10.20;87.30
43346;DHT22;28937;51.160;4.146;2022-12-11T11:37:38;10.10;85.90
43346;DHT22;28937;51.160;4.146;2022-12-11T11:40:17;10.00;85.60
43346;DHT22;28937;51.160;4.146;2022-12-11T11:45:28;10.00;84.60
43346;DHT22;28937;51.160;4.146;2022-12-11T11:48:04;10.00;83.90
43346;DHT22;28937;51.160;4.146;2022-12-11T11:50:34;9.90;84.20
43346;DHT22;28937;51.160;4.146;2022-12-11T11:53:15;9.90;84.00
43346;DHT22;28937;51.160;4.146;2022-12-11T11:55:45;9.70;83.40
43346;DHT22;28937;51.160;4.146;2022-12-11T11:58:16;9.40;85.60
43346;DHT22;28937;51.160;4.146;2022-12-11T12:00:44;9.90;83.70
43346;DHT22;28937;51.160;4.146;2022-12-11T12:03:13;9.90;82.50
43346;DHT22;28937;51.160;4.146;2022-12-11T12:14:22;9.70;83.30
43346;DHT22;28937;51.160;4.146;2022-12-11T12:17:10;9.70;83.80
43346;DHT22;28937;51.160;4.146;2022-12-11T12:28:43;9.70;83.10
43346;DHT22;28937;51.160;4.146;2022-12-11T12:37:11;9.60;82.40
43346;DHT22;28937;51.160;4.146;2022-12-11T12:39:47;9.60;82.60
43346;DHT22;28937;51.160;4.146;2022-12-11T12:47:42;9.50;83.00
43346;DHT22;28937;51.160;4.146;2022-12-11T12:50:12;9.50;83.10
43346;DHT22;28937;51.160;4.146;2022-12-11T12:52:39;9.50;83.20
43346;DHT22;28937;51.160;4.146;2022-12-11T12:58:03;9.60;82.90
43346;DHT22;28937;51.160;4.146;2022-12-11T13:00:34;9.50;82.70
43346;DHT22;28937;51.160;4.146;2022-12-11T13:03:23;9.50;83.30
43346;DHT22;28937;51.160;4.146;2022-12-11T13:06:08;9.40;83.00
43346;DHT22;28937;51.160;4.146;2022-12-11T13:08:46;9.40;83.40
43346;DHT22;28937;51.160;4.146;2022-12-11T13:11:15;9.30;83.50
43346;DHT22;28937;51.160;4.146;2022-12-11T13:14:20;9.30;83.50
43346;DHT22;28937;51.160;4.146;2022-12-11T13:16:36;9.40;83.60
43346;DHT22;28937;51.160;4.146;2022-12-11T13:19:14;9.30;83.50
43346;DHT22;28937;51.160;4.146;2022-12-11T13:21:40;9.40;83.90
43346;DHT22;28937;51.160;4.146;2022-12-11T13:26:37;9.30;84.10
43346;DHT22;28937;51.160;4.146;2022-12-11T13:29:04;9.20;85.60
43346;DHT22;28937;51.160;4.146;2022-12-11T13:31:33;9.10;85.90
43346;DHT22;28937;51.160;4.146;2022-12-11T13:34:07;9.00;86.80
43346;DHT22;28937;51.160;4.146;2022-12-11T13:36:39;9.30;86.80
43346;DHT22;28937;51.160;4.146;2022-12-11T13:41:45;9.50;87.20
43346;DHT22;28937;51.160;4.146;2022-12-11T13:44:19;9.80;84.00
43346;DHT22;28937;51.160;4.146;2022-12-11T13:46:46;9.80;83.60
43346;DHT22;28937;51.160;4.146;2022-12-11T13:49:23;9.30;85.60
43346;DHT22;28937;51.160;4.146;2022-12-11T13:51:56;9.20;87.20
43346;DHT22;28937;51.160;4.146;2022-12-11T13:54:21;9.40;88.50
43346;DHT22;28937;51.160;4.146;2022-12-11T13:56:54;9.90;89.50
43346;DHT22;28937;51.160;4.146;2022-12-11T13:59:50;9.80;86.00
43346;DHT22;28937;51.160;4.146;2022-12-11T14:02:34;9.50;86.20
43346;DHT22;28937;51.160;4.146;2022-12-11T14:05:05;9.40;87.20
43346;DHT22;28937;51.160;4.146;2022-12-11T14:07:46;9.20;87.10
43346;DHT22;28937;51.160;4.146;2022-12-11T14:10:25;9.70;84.70
43346;DHT22;28937;51.160;4.146;2022-12-11T14:13:00;9.50;85.90
43346;DHT22;28937;51.160;4.146;2022-12-11T14:15:28;9.40;86.40
43346;DHT22;28937;51.160;4.146;2022-12-11T14:17:54;9.40;86.70
43346;DHT22;28937;51.160;4.146;2022-12-11T14:20:32;9.50;86.90
43346;DHT22;28937;51.160;4.146;2022-12-11T14:23:25;9.50;86.70
43346;DHT22;28937;51.160;4.146;2022-12-11T14:28:29;9.50;86.80
43346;DHT22;28937;51.160;4.146;2022-12-11T14:31:00;9.70;86.60
43346;DHT22;28937;51.160;4.146;2022-12-11T14:34:06;9.50;87.00
43346;DHT22;28937;51.160;4.146;2022-12-11T14:36:34;9.50;89.60
43346;DHT22;28937;51.160;4.146;2022-12-11T14:39:12;9.40;87.50
43346;DHT22;28937;51.160;4.146;2022-12-11T14:42:02;9.50;87.50
43346;DHT22;28937;51.160;4.146;2022-12-11T14:44:44;9.30;87.60
43346;DHT22;28937;51.160;4.146;2022-12-11T14:47:36;9.40;87.80
43346;DHT22;28937;51.160;4.146;2022-12-11T14:50:07;9.80;86.40
43346;DHT22;28937;51.160;4.146;2022-12-11T14:52:43;10.00;84.60
43346;DHT22;28937;51.160;4.146;2022-12-11T14:57:39;9.80;84.70
43346;DHT22;28937;51.160;4.146;2022-12-11T15:00:08;9.80;84.80
43346;DHT22;28937;51.160;4.146;2022-12-11T15:02:56;9.80;85.10
43346;DHT22;28937;51.160;4.146;2022-12-11T15:05:22;9.60;85.50
43346;DHT22;28937;51.160;4.146;2022-12-11T15:08:14;9.70;84.80
43346;DHT22;28937;51.160;4.146;2022-12-11T15:11:08;9.50;87.00
43346;DHT22;28937;51.160;4.146;2022-12-11T15:13:38;9.50;86.90
43346;DHT22;28937;51.160;4.146;2022-12-11T15:16:13;9.40;87.60
43346;DHT22;28937;51.160;4.146;2022-12-11T15:18:40;9.70;86.10
43346;DHT22;28937;51.160;4.146;2022-12-11T15:21:09;9.80;84.30
43346;DHT22;28937;51.160;4.146;2022-12-11T15:23:53;9.80;84.20
43346;DHT22;28937;51.160;4.146;2022-12-11T15:26:20;9.60;85.10
43346;DHT22;28937;51.160;4.146;2022-12-11T15:29:01;9.50;86.50
43346;DHT22;28937;51.160;4.146;2022-12-11T15:31:30;9.60;85.40
43346;DHT22;28937;51.160;4.146;2022-12-11T15:33:56;9.60;85.10
43346;DHT22;28937;51.160;4.146;2022-12-11T15:38:55;9.70;85.20
43346;DHT22;28937;51.160;4.146;2022-12-11T15:41:21;9.40;86.20
43346;DHT22;28937;51.160;4.146;2022-12-11T15:43:55;10.00;87.00
43346;DHT22;28937;51.160;4.146;2022-12-11T15:46:21;9.70;85.70
43346;DHT22;28937;51.160;4.146;2022-12-11T15:48:47;10.00;84.50
43346;DHT22;28937;51.160;4.146;2022-12-11T15:51:14;9.90;84.20
43346;DHT22;28937;51.160;4.146;2022-12-11T15:53:40;9.90;84.50
43346;DHT22;28937;51.160;4.146;2022-12-11T15:56:06;9.70;84.70
43346;DHT22;28937;51.160;4.146;2022-12-11T15:58:34;9.70;84.90
43346;DHT22;28937;51.160;4.146;2022-12-11T16:01:00;9.70;85.00
43346;DHT22;28937;51.160;4.146;2022-12-11T16:03:25;9.50;86.00
43346;DHT22;28937;51.160;4.146;2022-12-11T16:05:51;9.40;86.70
43346;DHT22;28937;51.160;4.146;2022-12-11T16:08:19;9.30;87.20
43346;DHT22;28937;51.160;4.146;2022-12-11T16:10:46;9.40;87.20
43346;DHT22;28937;51.160;4.146;2022-12-11T16:13:12;9.30;87.50
43346;DHT22;28937;51.160;4.146;2022-12-11T16:15:40;9.40;87.50
43346;DHT22;28937;51.160;4.146;2022-12-11T16:18:12;9.50;87.60
43346;DHT22;28937;51.160;4.146;2022-12-11T16:20:39;9.50;87.60
43346;DHT22;28937;51.160;4.146;2022-12-11T16:23:05;9.40;87.50
43346;DHT22;28937;51.160;4.146;2022-12-11T16:25:31;9.30;88.10
43346;DHT22;28937;51.160;4.146;2022-12-11T16:27:59;9.60;87.60
43346;DHT22;28937;51.160;4.146;2022-12-11T16:30:27;9.60;87.70
43346;DHT22;28937;51.160;4.146;2022-12-11T16:32:53;9.70;87.70
43346;DHT22;28937;51.160;4.146;2022-12-11T16:35:19;9.60;87.60
43346;DHT22;28937;51.160;4.146;2022-12-11T16:37:48;9.70;88.00
43346;DHT22;28937;51.160;4.146;2022-12-11T16:40:14;9.70;87.60
43346;DHT22;28937;51.160;4.146;2022-12-11T16:42:40;9.80;87.60
43346;DHT22;28937;51.160;4.146;2022-12-11T16:45:12;9.80;87.50
43346;DHT22;28937;51.160;4.146;2022-12-11T16:47:38;9.60;87.70
43346;DHT22;28937;51.160;4.146;2022-12-11T16:50:03;10.00;92.70
43346;DHT22;28937;51.160;4.146;2022-12-11T16:52:30;10.10;92.70
43346;DHT22;28937;51.160;4.146;2022-12-11T16:54:56;10.00;91.90
43346;DHT22;28937;51.160;4.146;2022-12-11T16:57:22;10.00;91.80
43346;DHT22;28937;51.160;4.146;2022-12-11T16:59:47;10.10;92.10
43346;DHT22;28937;51.160;4.146;2022-12-11T17:02:13;10.00;91.40
43346;DHT22;28937;51.160;4.146;2022-12-11T17:04:38;10.00;91.10
43346;DHT22;28937;51.160;4.146;2022-12-11T17:07:04;10.10;91.10
43346;DHT22;28937;51.160;4.146;2022-12-11T17:09:31;10.00;90.90
43346;DHT22;28937;51.160;4.146;2022-12-11T17:11:57;10.10;90.80
43346;DHT22;28937;51.160;4.146;2022-12-11T17:14:23;10.10;90.50
43346;DHT22;28937;51.160;4.146;2022-12-11T17:16:49;10.30;90.00
43346;DHT22;28937;51.160;4.146;2022-12-11T17:19:15;10.20;89.90
43346;DHT22;28937;51.160;4.146;2022-12-11T17:21:41;10.30;89.60
43346;DHT22;28937;51.160;4.146;2022-12-11T17:24:07;10.30;89.20
43346;DHT22;28937;51.160;4.146;2022-12-11T17:26:35;10.20;89.20
43346;DHT22;28937;51.160;4.146;2022-12-11T17:29:01;10.10;89.30
43346;DHT22;28937;51.160;4.146;2022-12-11T17:31:26;10.10;89.50
43346;DHT22;28937;51.160;4.146;2022-12-11T17:33:52;10.40;89.10
43346;DHT22;28937;51.160;4.146;2022-12-11T17:36:20;10.50;88.60
43346;DHT22;28937;51.160;4.146;2022-12-11T17:38:46;10.40;88.60
43346;DHT22;28937;51.160;4.146;2022-12-11T17:41:13;10.70;90.00
43346;DHT22;28937;51.160;4.146;2022-12-11T17:43:40;10.90;89.70
43346;DHT22;28937;51.160;4.146;2022-12-11T17:46:06;11.40;91.20
43346;DHT22;28937;51.160;4.146;2022-12-11T17:48:32;11.00;87.60
43346;DHT22;28937;51.160;4.146;2022-12-11T17:51:02;10.80;89.40